Aérodrome :
LOGIN :

S'inscrire | Disclaimer

   EN    FR    IT 

 










Légende :    VFR   VFR Marginal   IFR   IFR Intensif   IFR Très Intensif
Visi : 
Plafond : 
>= 8 km
>= 3000ft
5 à 8 km
1000 à 3000 ft
1500m à 5 km
500 à 1000 ft
800 à 1500m
200 à 500 ft
< 800m
< 200 ft
Symboles :   Orages  Brouillard  Fortes neiges  Fortes précipitations  Vent > 20 kt
SIGMETs :   Divers  Orages  Givrage  Turbulence  Onde Orograph.  Cendres Volcan.







- Altitude de l'aérodrome : 7 ft
- Code IATA : XHE
- Voir les cartes d'approche


LFTH - Hyeres

DERNIER METAR :
  • 181900Z AUTO VRB03KT CAVOK 26/17 Q1016 NOSIG

METARs EXPIRÉS :
  • 181830Z AUTO 20004KT CAVOK 27/16 Q1016 NOSIG
  • 181800Z AUTO 23004KT CAVOK 28/15 Q1016 NOSIG
  • 181730Z AUTO 22005KT CAVOK 28/14 Q1016 NOSIG
  • 181700Z AUTO 21004KT 170V240 CAVOK 29/14 Q1016 NOSIG
  • 181630Z AUTO 20003KT 160V240 CAVOK 28/15 Q1016 NOSIG

TAF TAF LFTH
Valide du 18 à 15h jusqu'au 19 à 15h UTC


181400Z 1815/1915 23005KT CAVOK
BECMG 1820/1822 VRB03KT
BECMG 1905/1907 07005KT
BECMG 1910/1912 21010KT
Pas de NOTAMs connus pour ce terrain.
2 SIGMETs publiés pour la FIR Marseille (LFMM) :
 
Annulation du SIGMET 4 
LFMM SIGMET 5 VALID 181805/182000 LFPW
LFMM MARSEILLE FIR/UIR CNL SIGMET 4 181700/182000=
SIGMET 4  ANNULÉ :
Turbulence forte
LFMM SIGMET 4 VALID 181700/182000 LFPW
LFMM MARSEILLE FIR/UIR SEV TURB FCST WI N4200 E00430 - N4215 E00230 - N4345 E00245 - N4445 E00430 - N4315 E00530 - N4200 E00430 SFC/FL060 STNR NC=



MET'MAP, la Météo Aéronautique d'un coup d'oeil ! - Copyright ORBIFLY Décembre 2007 - Disclaimer

ORBIFLY MET'MAP TEAM :

Programmation & Développement : Alexandra Zaïnal
Conception & Développement : Baudouin d'Aumeries
Co-Programmation & Développement : Marc-Olivier Méhu
Soutien technique & logistique : Manuel Goepfert

Contact : metmap@orbifly.com




SOURCES & CREDITS :

   NOAA